createdAt,value
2023-05-01T00:00:01.829Z,36.44
2023-05-01T00:01:01.097Z,36.81
2023-05-01T00:02:01.088Z,32.98
2023-05-01T00:03:01.242Z,36.15
2023-05-01T00:04:01.311Z,36.45
2023-05-01T00:05:01.216Z,30.26
2023-05-01T00:06:01.241Z,32.63
2023-05-01T00:07:01.219Z,33.25
2023-05-01T00:08:01.216Z,32.47
2023-05-01T00:09:01.250Z,32.65
2023-05-01T00:10:01.259Z,33.42
2023-05-01T00:11:01.266Z,33.87
2023-05-01T00:12:01.258Z,31.24
2023-05-01T00:13:01.322Z,32.56
2023-05-01T00:14:01.342Z,36.22
2023-05-01T00:15:01.365Z,31.87
2023-05-01T00:16:01.413Z,34.47
2023-05-01T00:17:01.364Z,32.83
2023-05-01T00:18:01.461Z,31.80
2023-05-01T00:19:01.432Z,32.63
2023-05-01T00:20:01.462Z,30.97
2023-05-01T00:21:01.480Z,34.16
2023-05-01T00:22:01.477Z,30.31
2023-05-01T00:23:01.595Z,34.52
2023-05-01T00:24:01.524Z,32.53
2023-05-01T00:25:01.517Z,32.82
2023-05-01T00:26:01.561Z,31.83
2023-05-01T00:27:01.571Z,32.85
2023-05-01T00:28:01.595Z,32.82
2023-05-01T00:29:01.627Z,31.70
2023-05-01T00:30:01.637Z,32.63
2023-05-01T00:31:01.668Z,32.07
2023-05-01T00:32:01.799Z,33.72
2023-05-01T00:33:01.826Z,33.25
2023-05-01T00:34:01.725Z,35.76
2023-05-01T00:35:01.789Z,34.57
2023-05-01T00:36:01.801Z,31.77
2023-05-01T00:37:01.813Z,28.83
2023-05-01T00:38:01.825Z,31.68
2023-05-01T00:39:01.838Z,33.90
2023-05-01T00:40:01.870Z,32.91
2023-05-01T00:41:01.883Z,35.09
2023-05-01T00:42:01.908Z,31.15
2023-05-01T00:43:01.889Z,33.77
2023-05-01T00:44:01.929Z,31.75
2023-05-01T00:45:01.966Z,30.28
2023-05-01T00:46:02.006Z,32.41
2023-05-01T00:47:01.987Z,31.12
2023-05-01T00:48:02.184Z,30.44
2023-05-01T00:49:02.035Z,31.98
2023-05-01T00:50:02.154Z,31.61
2023-05-01T00:51:02.079Z,31.25
2023-05-01T00:52:02.127Z,32.27
2023-05-01T00:53:02.114Z,31.84
2023-05-01T00:54:02.121Z,30.67
2023-05-01T00:55:02.144Z,29.96
2023-05-01T00:56:02.177Z,29.31
2023-05-01T00:57:02.255Z,30.01
2023-05-01T00:58:02.215Z,29.24
2023-05-01T00:59:02.231Z,27.11
2023-05-01T01:00:02.279Z,32.96
2023-05-01T01:01:02.357Z,32.84
2023-05-01T01:02:02.322Z,30.64
2023-05-01T01:03:02.400Z,29.82
2023-05-01T01:04:02.414Z,31.85
2023-05-01T01:05:02.386Z,28.34
2023-05-01T01:06:02.433Z,31.06
2023-05-01T01:07:02.429Z,32.31
2023-05-01T01:08:02.420Z,27.84
2023-05-01T01:09:02.459Z,28.53
2023-05-01T01:10:02.441Z,28.29
2023-05-01T01:11:02.485Z,27.40
2023-05-01T01:12:02.488Z,27.93
2023-05-01T01:13:02.518Z,30.76
2023-05-01T01:14:02.493Z,28.79
2023-05-01T01:15:02.555Z,26.21
2023-05-01T01:16:02.518Z,29.09
2023-05-01T01:17:02.559Z,29.53
2023-05-01T01:18:02.560Z,30.10
2023-05-01T01:19:02.524Z,28.09
2023-05-01T01:20:02.550Z,27.90
2023-05-01T01:21:02.555Z,26.15
2023-05-01T01:22:02.541Z,27.50
2023-05-01T01:23:02.524Z,31.10
2023-05-01T01:24:02.540Z,26.72
2023-05-01T01:25:02.498Z,26.74
2023-05-01T01:26:02.553Z,25.93
2023-05-01T01:27:02.570Z,27.21
2023-05-01T01:28:02.542Z,30.06
2023-05-01T01:29:02.557Z,27.61
2023-05-01T01:30:02.507Z,29.58
2023-05-01T01:31:02.566Z,26.16
2023-05-01T01:32:02.571Z,28.65
2023-05-01T01:33:02.638Z,26.30
2023-05-01T01:34:02.573Z,26.92
2023-05-01T01:35:02.597Z,25.92
2023-05-01T01:36:02.632Z,28.29
2023-05-01T01:37:02.646Z,25.58
2023-05-01T01:38:02.648Z,26.12
2023-05-01T01:39:02.700Z,28.17
2023-05-01T01:40:02.743Z,29.54
2023-05-01T01:41:02.761Z,27.73
2023-05-01T01:42:02.764Z,25.00
2023-05-01T01:43:02.835Z,27.41
2023-05-01T01:44:02.884Z,28.34
2023-05-01T01:45:02.926Z,29.54
2023-05-01T01:46:02.974Z,29.02
2023-05-01T01:47:03.022Z,26.98
2023-05-01T01:48:03.135Z,26.19
2023-05-01T01:49:03.110Z,29.24
2023-05-01T01:50:03.178Z,27.59
2023-05-01T01:51:03.262Z,26.61
2023-05-01T01:52:03.297Z,27.49
2023-05-01T01:53:03.394Z,29.22
2023-05-01T01:54:03.440Z,27.94
2023-05-01T01:55:03.479Z,29.80
2023-05-01T01:56:03.947Z,27.41
2023-05-01T01:57:03.602Z,29.23
2023-05-01T01:58:03.661Z,26.83
2023-05-01T01:59:03.738Z,30.82
2023-05-01T02:00:03.795Z,28.96
2023-05-01T02:01:03.823Z,30.18
2023-05-01T02:02:04.006Z,30.16
2023-05-01T02:03:04.026Z,26.88
2023-05-01T02:04:04.092Z,28.23
2023-05-01T02:05:04.082Z,27.17
2023-05-01T02:06:04.255Z,25.00
2023-05-01T02:07:04.200Z,31.82
2023-05-01T02:08:04.305Z,31.16
2023-05-01T02:09:04.370Z,29.49
2023-05-01T02:10:04.403Z,30.05
2023-05-01T02:11:04.479Z,26.83
2023-05-01T02:12:04.546Z,27.92
2023-05-01T02:13:04.594Z,29.01
2023-05-01T02:14:04.673Z,31.68
2023-05-01T02:15:04.717Z,30.58
2023-05-01T02:16:04.838Z,31.78
2023-05-01T02:17:04.832Z,32.13
2023-05-01T02:18:05.002Z,31.54
2023-05-01T02:19:04.984Z,33.80
2023-05-01T02:20:05.031Z,30.07
2023-05-01T02:21:05.092Z,29.20
2023-05-01T02:22:05.131Z,27.76
2023-05-01T02:23:05.210Z,27.92
2023-05-01T02:24:05.277Z,26.26
2023-05-01T02:25:05.334Z,28.66
2023-05-01T02:26:05.386Z,26.69
2023-05-01T02:27:05.415Z,31.11
2023-05-01T02:28:05.451Z,28.11
2023-05-01T02:29:05.559Z,30.53
2023-05-01T02:30:05.586Z,28.21
2023-05-01T02:31:05.672Z,30.17
2023-05-01T02:32:05.838Z,32.50
2023-05-01T02:33:05.844Z,27.63
2023-05-01T02:34:05.818Z,29.01
2023-05-01T02:35:05.882Z,28.09
2023-05-01T02:36:05.966Z,26.87
2023-05-01T02:37:05.992Z,30.72
2023-05-01T02:38:06.035Z,28.04
2023-05-01T02:39:06.149Z,28.38
2023-05-01T02:40:06.214Z,25.82
2023-05-01T02:41:06.243Z,27.78
2023-05-01T02:42:06.257Z,27.64
2023-05-01T02:43:06.318Z,31.56
2023-05-01T02:44:06.398Z,31.07
2023-05-01T02:45:06.422Z,29.38
2023-05-01T02:46:06.564Z,29.25
2023-05-01T02:47:06.608Z,27.82
2023-05-01T02:48:06.617Z,28.21
2023-05-01T02:49:06.649Z,29.98
2023-05-01T02:50:06.699Z,31.66
2023-05-01T02:51:06.782Z,27.24
2023-05-01T02:52:06.830Z,29.33
2023-05-01T02:53:06.910Z,30.78
2023-05-01T02:54:06.991Z,30.86
2023-05-01T02:55:07.031Z,28.20
2023-05-01T02:56:07.096Z,26.78
2023-05-01T02:57:07.145Z,32.86
2023-05-01T02:58:07.217Z,27.17
2023-05-01T02:59:07.279Z,26.89
2023-05-01T03:00:07.311Z,26.35
2023-05-01T03:01:07.357Z,30.48
2023-05-01T03:02:07.399Z,32.02
2023-05-01T03:03:07.510Z,26.26
2023-05-01T03:04:07.532Z,27.56
2023-05-01T03:05:07.572Z,31.44
2023-05-01T03:06:07.699Z,26.80
2023-05-01T03:07:07.670Z,29.53
2023-05-01T03:08:07.746Z,30.88
2023-05-01T03:09:07.776Z,28.80
2023-05-01T03:10:07.878Z,28.15
2023-05-01T03:11:07.900Z,28.43
2023-05-01T03:12:07.948Z,27.24
2023-05-01T03:13:08.029Z,29.07
2023-05-01T03:14:08.087Z,29.02
2023-05-01T03:15:08.135Z,30.71
2023-05-01T03:16:08.244Z,29.28
2023-05-01T03:17:08.236Z,28.92
2023-05-01T03:18:08.330Z,28.65
2023-05-01T03:19:08.360Z,29.63
2023-05-01T03:20:08.400Z,29.02
2023-05-01T03:21:08.475Z,30.46
2023-05-01T03:22:08.529Z,31.28
2023-05-01T03:23:08.582Z,30.86
2023-05-01T03:24:08.627Z,30.59
2023-05-01T03:25:08.683Z,29.41
2023-05-01T03:26:08.748Z,29.05
2023-05-01T03:27:08.799Z,30.21
2023-05-01T03:28:08.864Z,31.08
2023-05-01T03:29:08.892Z,26.89
2023-05-01T03:30:09.044Z,28.99
2023-05-01T03:31:09.026Z,28.46
2023-05-01T03:32:09.120Z,31.50
2023-05-01T03:33:09.185Z,30.05
2023-05-01T03:34:09.197Z,31.18
2023-05-01T03:35:09.301Z,30.31
2023-05-01T03:36:09.324Z,28.42
2023-05-01T03:37:09.370Z,30.99
2023-05-01T03:38:09.432Z,30.06
2023-05-01T03:39:09.489Z,34.16
2023-05-01T03:40:09.534Z,34.69
2023-05-01T03:41:09.635Z,29.15
2023-05-01T03:42:09.664Z,33.24
2023-05-01T03:43:09.769Z,28.98
2023-05-01T03:44:09.794Z,29.98
2023-05-01T03:45:09.905Z,30.86
2023-05-01T03:46:09.971Z,29.81
2023-05-01T03:47:09.984Z,35.06
2023-05-01T03:48:10.080Z,27.29
2023-05-01T03:49:10.115Z,31.42
2023-05-01T03:50:10.202Z,29.94
2023-05-01T03:51:10.232Z,32.45
2023-05-01T03:52:10.312Z,27.32
2023-05-01T03:53:10.385Z,29.91
2023-05-01T03:54:10.430Z,32.27
2023-05-01T03:55:10.525Z,32.01
2023-05-01T03:56:10.594Z,28.19
2023-05-01T03:57:10.654Z,29.55
2023-05-01T03:58:10.744Z,30.74
2023-05-01T03:59:10.775Z,30.15
2023-05-01T04:00:10.815Z,30.71
2023-05-01T04:01:10.891Z,30.89
2023-05-01T04:02:10.997Z,27.91
2023-05-01T04:03:11.147Z,28.94
2023-05-01T04:04:11.177Z,31.95
2023-05-01T04:05:11.182Z,29.80
2023-05-01T04:06:11.260Z,30.38
2023-05-01T04:07:11.290Z,29.17
2023-05-01T04:08:11.380Z,32.84
2023-05-01T04:09:11.397Z,29.94
2023-05-01T04:10:11.476Z,29.84
2023-05-01T04:11:11.544Z,30.85
2023-05-01T04:12:11.628Z,29.07
2023-05-01T04:13:11.686Z,29.22
2023-05-01T04:14:11.758Z,33.30
2023-05-01T04:15:12.778Z,31.50
2023-05-01T04:16:11.883Z,28.62
2023-05-01T04:17:11.943Z,31.56
2023-05-01T04:18:12.095Z,29.81
2023-05-01T04:19:12.023Z,30.11
2023-05-01T04:20:12.092Z,29.49
2023-05-01T04:21:12.194Z,31.44
2023-05-01T04:22:12.255Z,28.50
2023-05-01T04:23:12.314Z,31.06
2023-05-01T04:24:12.397Z,28.85
2023-05-01T04:25:12.433Z,30.16
2023-05-01T04:26:12.532Z,30.43
2023-05-01T04:27:12.570Z,30.19
2023-05-01T04:28:12.658Z,29.35
2023-05-01T04:29:12.703Z,31.54
2023-05-01T04:30:12.784Z,30.87
2023-05-01T04:31:12.897Z,29.82
2023-05-01T04:32:12.919Z,31.70
2023-05-01T04:33:12.946Z,34.10
2023-05-01T04:34:13.044Z,29.63
2023-05-01T04:35:13.114Z,27.17
2023-05-01T04:36:13.158Z,27.31
2023-05-01T04:37:13.231Z,30.75
2023-05-01T04:38:13.294Z,30.38
2023-05-01T04:39:13.355Z,33.60
2023-05-01T04:40:13.400Z,28.58
2023-05-01T04:41:13.451Z,30.26
2023-05-01T04:42:13.437Z,28.14
2023-05-01T04:43:13.522Z,29.98
2023-05-01T04:44:13.576Z,28.42
2023-05-01T04:45:13.636Z,31.70
2023-05-01T04:46:13.745Z,29.96
2023-05-01T04:47:13.748Z,32.24
2023-05-01T04:48:13.821Z,26.77
2023-05-01T04:49:13.858Z,29.45
2023-05-01T04:50:13.976Z,26.38
2023-05-01T04:51:13.981Z,32.86
2023-05-01T04:52:13.994Z,29.55
2023-05-01T04:53:14.055Z,27.63
2023-05-01T04:54:14.085Z,29.60
2023-05-01T04:55:14.143Z,27.50
2023-05-01T04:56:14.168Z,26.63
2023-05-01T04:57:14.270Z,30.98
2023-05-01T04:58:14.273Z,26.73
2023-05-01T04:59:14.333Z,30.77
2023-05-01T05:00:14.386Z,29.11
2023-05-01T05:01:14.500Z,32.97
2023-05-01T05:02:14.560Z,27.41
2023-05-01T05:03:14.609Z,30.62
2023-05-01T05:04:14.617Z,30.78
2023-05-01T05:05:14.659Z,29.48
2023-05-01T05:06:14.758Z,28.42
2023-05-01T05:07:14.744Z,27.75
2023-05-01T05:08:14.786Z,30.99
2023-05-01T05:09:15.673Z,26.01
2023-05-01T05:10:14.870Z,28.39
2023-05-01T05:11:14.970Z,28.26
2023-05-01T05:12:14.950Z,28.10
2023-05-01T05:13:15.012Z,31.00
2023-05-01T05:14:15.067Z,28.74
2023-05-01T05:15:15.090Z,29.73
2023-05-01T05:16:15.309Z,28.25
2023-05-01T05:17:15.159Z,26.06
2023-05-01T05:18:15.229Z,27.56
2023-05-01T05:19:15.254Z,28.92
2023-05-01T05:20:15.286Z,27.54
2023-05-01T05:21:15.319Z,30.30
2023-05-01T05:22:15.383Z,28.81
2023-05-01T05:23:15.416Z,30.67
2023-05-01T05:24:15.446Z,28.41
2023-05-01T05:25:15.493Z,28.16
2023-05-01T05:26:15.486Z,28.09
2023-05-01T05:27:15.510Z,26.42
2023-05-01T05:28:15.538Z,29.92
2023-05-01T05:29:15.546Z,29.54
2023-05-01T05:30:15.598Z,27.55
2023-05-01T05:31:15.634Z,28.29
2023-05-01T05:32:15.731Z,26.86
2023-05-01T05:33:15.781Z,26.52
2023-05-01T05:34:15.731Z,27.67
2023-05-01T05:35:15.748Z,30.75
2023-05-01T05:36:15.766Z,28.65
2023-05-01T05:37:15.826Z,29.80
2023-05-01T05:38:15.832Z,28.29
2023-05-01T05:39:15.861Z,31.19
2023-05-01T05:40:15.904Z,30.71
2023-05-01T05:41:15.908Z,30.73
2023-05-01T05:42:15.936Z,30.93
2023-05-01T05:43:16.003Z,30.48
2023-05-01T05:44:16.025Z,29.33
2023-05-01T05:45:15.998Z,29.02
2023-05-01T05:47:35.110Z,25.00
2023-05-01T05:48:35.123Z,25.00
2023-05-01T05:49:35.130Z,25.00
2023-05-01T05:50:35.102Z,25.00
2023-05-01T05:51:35.109Z,25.00
2023-05-01T05:52:35.065Z,26.22
2023-05-01T05:53:35.081Z,25.36
2023-05-01T05:54:35.080Z,25.48
2023-05-01T05:55:35.063Z,29.32
2023-05-01T05:56:35.044Z,25.00
2023-05-01T05:57:35.020Z,29.24
2023-05-01T05:58:35.044Z,26.67
2023-05-01T05:59:35.017Z,30.57
2023-05-01T06:00:35.055Z,28.28
2023-05-01T06:01:35.038Z,29.19
2023-05-01T06:02:35.198Z,28.19
2023-05-01T06:03:35.228Z,28.84
2023-05-01T06:04:35.171Z,25.69
2023-05-01T06:05:35.276Z,27.78
2023-05-01T06:06:35.268Z,28.12
2023-05-01T06:07:35.276Z,27.29
2023-05-01T06:08:35.300Z,28.71
2023-05-01T06:09:35.348Z,27.47
2023-05-01T06:10:35.405Z,30.15
2023-05-01T06:11:35.409Z,28.21
2023-05-01T06:12:37.544Z,28.04
2023-05-01T06:13:35.692Z,30.01
2023-05-01T06:14:35.710Z,28.32
2023-05-01T06:15:35.780Z,27.37
2023-05-01T06:16:35.940Z,28.36
2023-05-01T06:17:35.928Z,28.43
2023-05-01T06:18:35.979Z,26.58
2023-05-01T06:19:36.026Z,27.36
2023-05-01T06:20:36.104Z,25.00
2023-05-01T06:21:36.158Z,26.25
2023-05-01T06:22:36.214Z,28.78
2023-05-01T06:23:36.331Z,28.80
2023-05-01T06:24:36.332Z,27.47
2023-05-01T06:25:36.372Z,29.84
2023-05-01T06:26:36.433Z,30.21
2023-05-01T06:27:36.476Z,29.99
2023-05-01T06:28:36.551Z,30.15
2023-05-01T06:29:36.587Z,26.25
2023-05-01T06:30:36.674Z,32.28
2023-05-01T06:31:36.799Z,28.97
2023-05-01T06:32:36.774Z,29.76
2023-05-01T06:33:36.846Z,29.01
2023-05-01T06:34:36.872Z,27.30
2023-05-01T06:35:36.899Z,28.51
2023-05-01T06:36:36.998Z,29.94
2023-05-01T06:37:37.065Z,28.77
2023-05-01T06:38:37.123Z,27.17
2023-05-01T06:39:37.196Z,28.25
2023-05-01T06:40:37.311Z,27.80
2023-05-01T06:41:37.333Z,27.81
2023-05-01T06:42:37.401Z,25.77
2023-05-01T06:43:37.419Z,28.87
2023-05-01T06:44:37.518Z,27.84
2023-05-01T06:45:37.590Z,30.14
2023-05-01T06:46:37.684Z,30.47
2023-05-01T06:47:37.685Z,28.08
2023-05-01T06:48:37.764Z,28.12
2023-05-01T06:49:37.799Z,29.01
2023-05-01T06:50:37.859Z,28.67
2023-05-01T06:51:37.933Z,27.32
2023-05-01T06:52:38.041Z,27.48
2023-05-01T06:53:38.015Z,27.35
2023-05-01T06:54:38.086Z,26.74
2023-05-01T06:55:38.169Z,28.95
2023-05-01T06:56:38.221Z,28.21
2023-05-01T06:57:38.279Z,28.57
2023-05-01T06:58:38.311Z,28.17
2023-05-01T06:59:38.370Z,29.33
2023-05-01T07:00:38.458Z,26.64
2023-05-01T07:01:38.492Z,31.98
2023-05-01T07:02:38.600Z,29.05
2023-05-01T07:03:38.651Z,32.60
2023-05-01T07:04:38.691Z,28.61
2023-05-01T07:05:38.728Z,32.00
2023-05-01T07:06:38.792Z,31.28
2023-05-01T07:07:42.282Z,30.68
2023-05-01T07:08:39.832Z,30.95
2023-05-01T07:09:38.821Z,31.36
2023-05-01T07:10:41.784Z,31.32
2023-05-01T07:11:38.823Z,33.26
2023-05-01T07:12:38.810Z,31.62
2023-05-01T07:13:38.808Z,32.89
2023-05-01T07:14:38.810Z,29.14
2023-05-01T07:15:38.786Z,31.26
2023-05-01T07:16:38.859Z,31.29
2023-05-01T07:17:38.817Z,32.36
2023-05-01T07:18:38.792Z,28.85
2023-05-01T07:19:38.742Z,32.39
2023-05-01T07:20:38.763Z,32.12
2023-05-01T07:21:38.754Z,29.24
2023-05-01T07:22:38.771Z,33.71
2023-05-01T07:23:38.771Z,30.39
2023-05-01T07:24:38.736Z,32.57
2023-05-01T07:25:38.730Z,29.11
2023-05-01T07:26:38.727Z,28.88
2023-05-01T07:27:38.701Z,29.19
2023-05-01T07:28:38.721Z,30.13
2023-05-01T07:29:38.696Z,30.28
2023-05-01T07:30:38.697Z,33.91
2023-05-01T07:31:38.742Z,32.20
2023-05-01T07:32:38.690Z,29.94
2023-05-01T07:33:38.678Z,30.54
2023-05-01T07:34:38.680Z,32.60
2023-05-01T07:35:38.696Z,32.35
2023-05-01T07:36:38.818Z,32.03
2023-05-01T07:37:38.663Z,28.14
2023-05-01T07:38:38.664Z,30.77
2023-05-01T07:39:38.644Z,30.26
2023-05-01T07:40:38.608Z,30.91
2023-05-01T07:41:38.618Z,28.87
2023-05-01T07:42:38.656Z,28.49
2023-05-01T07:43:38.731Z,34.27
2023-05-01T07:44:38.793Z,31.45
2023-05-01T07:45:38.878Z,29.20
2023-05-01T07:46:39.021Z,32.28
2023-05-01T07:47:39.039Z,32.77
2023-05-01T07:48:39.283Z,31.05
2023-05-01T07:49:39.095Z,29.63
2023-05-01T07:50:39.136Z,34.51
2023-05-01T07:51:39.192Z,28.49
2023-05-01T07:52:39.288Z,33.23
2023-05-01T07:53:39.351Z,29.62
2023-05-01T07:54:39.372Z,29.72
2023-05-01T07:55:39.426Z,29.65
2023-05-01T07:56:39.509Z,28.22
2023-05-01T07:57:39.604Z,31.51
2023-05-01T07:58:39.630Z,29.19
2023-05-01T07:59:39.684Z,33.60
2023-05-01T08:00:39.748Z,29.17
2023-05-01T08:01:39.819Z,30.72
2023-05-01T08:02:39.926Z,29.53
2023-05-01T08:03:39.994Z,29.35
2023-05-01T08:04:40.034Z,29.51
2023-05-01T08:05:40.091Z,29.87
2023-05-01T08:06:40.179Z,29.06
2023-05-01T08:07:40.171Z,30.27
2023-05-01T08:08:40.225Z,28.45
2023-05-01T08:09:40.284Z,29.80
2023-05-01T08:10:40.341Z,26.80
2023-05-01T08:11:40.430Z,28.57
2023-05-01T08:12:40.480Z,28.47
2023-05-01T08:13:40.546Z,29.52
2023-05-01T08:14:40.637Z,28.46
2023-05-01T08:15:40.727Z,26.52
2023-05-01T08:16:40.834Z,26.43
2023-05-01T08:17:40.836Z,27.28
2023-05-01T08:18:40.851Z,29.12
2023-05-01T08:19:40.938Z,28.85
2023-05-01T08:20:41.007Z,27.50
2023-05-01T08:21:41.057Z,27.93
2023-05-01T08:22:41.135Z,31.50
2023-05-01T08:23:41.158Z,30.62
2023-05-01T08:24:41.251Z,31.57
2023-05-01T08:25:41.271Z,28.32
2023-05-01T08:26:41.361Z,34.27
2023-05-01T08:27:41.376Z,28.14
2023-05-01T08:28:41.449Z,29.77
2023-05-01T08:29:41.486Z,31.23
2023-05-01T08:30:41.573Z,28.23
2023-05-01T08:31:41.652Z,27.20
2023-05-01T08:32:41.709Z,29.39
2023-05-01T08:33:41.719Z,31.55
2023-05-01T08:34:41.744Z,26.84
2023-05-01T08:35:41.811Z,30.06
2023-05-01T08:36:41.833Z,29.44
2023-05-01T08:37:41.895Z,30.36
2023-05-01T08:38:41.959Z,28.65
2023-05-01T08:39:41.992Z,29.37
2023-05-01T08:40:42.073Z,30.39
2023-05-01T08:41:42.107Z,29.41
2023-05-01T08:42:42.192Z,29.84
2023-05-01T08:43:42.210Z,30.04
2023-05-01T08:44:42.322Z,27.92
2023-05-01T08:45:42.306Z,30.30
2023-05-01T08:46:42.439Z,29.28
2023-05-01T08:47:42.452Z,31.46
2023-05-01T08:48:42.465Z,33.14
2023-05-01T08:49:42.576Z,31.03
2023-05-01T08:50:42.542Z,31.71
2023-05-01T08:51:42.567Z,30.56
2023-05-01T08:52:42.599Z,28.98
2023-05-01T08:53:42.665Z,29.50
2023-05-01T08:54:42.803Z,30.56
2023-05-01T08:55:42.732Z,30.16
2023-05-01T08:56:42.790Z,30.96
2023-05-01T08:57:42.854Z,32.60
2023-05-01T08:58:42.873Z,26.71
2023-05-01T08:59:42.904Z,30.50
2023-05-01T09:00:42.976Z,28.26
2023-05-01T09:01:43.031Z,29.28
2023-05-01T09:02:43.145Z,31.93
2023-05-01T09:03:43.165Z,28.65
2023-05-01T09:04:43.152Z,33.68
2023-05-01T09:05:43.208Z,28.47
2023-05-01T09:06:43.277Z,26.02
2023-05-01T09:07:43.284Z,32.51
2023-05-01T09:08:43.364Z,30.39
2023-05-01T09:09:43.404Z,28.65
2023-05-01T09:10:43.449Z,30.91
2023-05-01T09:11:43.516Z,27.52
2023-05-01T09:12:43.521Z,29.68
2023-05-01T09:13:43.523Z,29.75
2023-05-01T09:14:43.562Z,27.42
2023-05-01T09:15:43.638Z,30.35
2023-05-01T09:16:43.712Z,30.14
2023-05-01T09:17:43.722Z,31.58
2023-05-01T09:18:43.711Z,27.87
2023-05-01T09:19:43.758Z,30.02
2023-05-01T09:20:43.814Z,29.48
2023-05-01T09:21:43.880Z,30.22
2023-05-01T09:22:43.903Z,28.55
2023-05-01T09:23:43.945Z,30.54
2023-05-01T09:24:44.016Z,26.85
2023-05-01T09:25:43.973Z,28.79
2023-05-01T09:26:44.066Z,27.95
2023-05-01T09:27:44.071Z,29.65
2023-05-01T09:28:44.141Z,27.63
2023-05-01T09:29:44.155Z,29.07
2023-05-01T09:30:44.200Z,28.23
2023-05-01T09:31:44.264Z,30.26
2023-05-01T09:32:44.295Z,27.33
2023-05-01T09:33:44.278Z,27.58
2023-05-01T09:34:44.340Z,28.89
2023-05-01T09:35:44.350Z,31.03
2023-05-01T09:36:44.390Z,28.55
2023-05-01T09:37:45.552Z,30.53
2023-05-01T09:38:44.451Z,29.35
2023-05-01T09:39:44.490Z,30.11
2023-05-01T09:40:44.482Z,29.98
2023-05-01T09:41:44.544Z,29.61
2023-05-01T09:42:44.536Z,27.59
2023-05-01T09:43:44.564Z,29.41
2023-05-01T09:44:44.550Z,31.04
2023-05-01T09:45:44.673Z,30.96
2023-05-01T09:46:44.615Z,30.06
2023-05-01T09:47:44.700Z,30.95
2023-05-01T09:48:44.653Z,28.96
2023-05-01T09:49:44.661Z,29.22
2023-05-01T09:50:44.667Z,29.77
2023-05-01T09:51:44.728Z,27.63
2023-05-01T09:52:44.732Z,26.54
2023-05-01T09:53:44.728Z,29.61
2023-05-01T09:54:44.732Z,29.60
2023-05-01T09:55:44.744Z,30.26
2023-05-01T09:56:44.786Z,27.35
2023-05-01T09:57:44.772Z,26.64
2023-05-01T09:58:44.788Z,27.93
2023-05-01T09:59:44.808Z,30.74
2023-05-01T10:00:44.826Z,29.37
2023-05-01T10:01:44.850Z,30.83
2023-05-01T10:02:45.013Z,30.74
2023-05-01T10:03:45.088Z,29.92
2023-05-01T10:04:44.980Z,30.82
2023-05-01T10:05:44.922Z,27.60
2023-05-01T10:06:44.998Z,30.02
2023-05-01T10:07:44.916Z,29.37
2023-05-01T10:08:45.021Z,31.01
2023-05-01T10:09:45.032Z,31.59
2023-05-01T10:10:44.988Z,32.27
2023-05-01T10:11:44.993Z,30.41
2023-05-01T10:12:44.991Z,31.99
2023-05-01T10:13:44.986Z,31.30
2023-05-01T10:14:45.033Z,27.57
2023-05-01T10:15:45.022Z,30.66
2023-05-01T10:16:45.062Z,28.12
2023-05-01T10:17:45.041Z,32.59
2023-05-01T10:18:45.034Z,28.72
2023-05-01T10:19:45.055Z,31.83
2023-05-01T10:20:45.062Z,32.34
2023-05-01T10:21:45.102Z,30.70
2023-05-01T10:22:45.094Z,31.24
2023-05-01T10:23:45.120Z,31.43
2023-05-01T10:24:45.131Z,31.07
2023-05-01T10:25:45.130Z,31.33
2023-05-01T10:26:45.115Z,31.69
2023-05-01T10:27:45.250Z,33.25
2023-05-01T10:28:45.169Z,32.01
2023-05-01T10:29:45.172Z,34.41
2023-05-01T10:30:45.265Z,30.47
2023-05-01T10:31:45.252Z,34.38
2023-05-01T10:32:45.243Z,34.85
2023-05-01T10:33:45.201Z,33.35
2023-05-01T10:34:45.262Z,32.88
2023-05-01T10:35:45.256Z,33.35
2023-05-01T10:36:45.249Z,35.92
2023-05-01T10:37:45.252Z,32.92
2023-05-01T10:38:45.290Z,32.19
2023-05-01T10:39:45.324Z,35.30
2023-05-01T10:40:45.304Z,35.09
2023-05-01T10:41:45.343Z,31.83
2023-05-01T10:42:45.324Z,31.91
2023-05-01T10:43:45.324Z,33.88
2023-05-01T10:44:45.345Z,31.80
2023-05-01T10:45:45.342Z,36.53
2023-05-01T10:46:45.388Z,34.58
2023-05-01T10:47:45.431Z,33.76
2023-05-01T10:48:45.380Z,32.71
2023-05-01T10:49:45.392Z,32.06
2023-05-01T10:50:45.406Z,34.95
2023-05-01T10:51:45.437Z,32.81
2023-05-01T10:52:45.439Z,33.72
2023-05-01T10:53:45.478Z,33.04
2023-05-01T10:54:45.450Z,33.27
2023-05-01T10:55:45.446Z,33.14
2023-05-01T10:56:45.460Z,33.99
2023-05-01T10:57:45.502Z,33.29
2023-05-01T10:58:45.529Z,34.55
2023-05-01T10:59:45.508Z,33.50
2023-05-01T11:00:45.536Z,31.80
2023-05-01T11:01:45.608Z,34.18
2023-05-01T11:02:45.578Z,33.99
2023-05-01T11:03:45.563Z,33.13
2023-05-01T11:04:45.555Z,34.53
2023-05-01T11:05:45.627Z,32.43
2023-05-01T11:06:45.619Z,34.17
2023-05-01T11:07:45.592Z,33.03
2023-05-01T11:08:46.479Z,31.79
2023-05-01T11:09:45.668Z,35.44
2023-05-01T11:10:45.642Z,33.26
2023-05-01T11:11:45.658Z,32.92
2023-05-01T11:12:45.684Z,34.12
2023-05-01T11:13:45.639Z,32.22
2023-05-01T11:14:45.692Z,34.38
2023-05-01T11:15:45.664Z,34.42
2023-05-01T11:16:45.781Z,33.45
2023-05-01T11:17:45.746Z,35.57
2023-05-01T11:18:45.685Z,36.55
2023-05-01T11:19:45.708Z,33.15
2023-05-01T11:20:45.701Z,35.47
2023-05-01T11:21:45.734Z,34.98
2023-05-01T11:22:45.739Z,35.28
2023-05-01T11:23:45.742Z,36.53
2023-05-01T11:24:45.753Z,35.29
2023-05-01T11:25:45.772Z,33.57
2023-05-01T11:26:45.740Z,35.60
2023-05-01T11:27:45.765Z,35.44
2023-05-01T11:28:45.747Z,34.45
2023-05-01T11:29:45.755Z,33.57
2023-05-01T11:30:45.782Z,36.11
2023-05-01T11:31:45.834Z,34.66
2023-05-01T11:32:45.834Z,36.11
2023-05-01T11:33:45.815Z,37.11
2023-05-01T11:34:45.835Z,34.80
2023-05-01T11:35:45.836Z,34.45
2023-05-01T11:36:45.842Z,35.22
2023-05-01T11:37:45.842Z,32.08
2023-05-01T11:38:45.874Z,37.98
2023-05-01T11:39:45.882Z,37.78
2023-05-01T11:40:45.869Z,37.24
2023-05-01T11:41:45.994Z,36.34
2023-05-01T11:42:45.921Z,37.16
2023-05-01T11:43:45.961Z,35.99
2023-05-01T11:44:45.923Z,35.13
2023-05-01T11:45:46.021Z,35.79
2023-05-01T11:46:45.953Z,35.43
2023-05-01T11:47:45.992Z,37.29
2023-05-01T11:48:45.959Z,35.87
2023-05-01T11:49:45.953Z,35.82
2023-05-01T11:50:45.970Z,34.07
2023-05-01T11:51:45.971Z,36.33
2023-05-01T11:52:46.003Z,36.41
2023-05-01T11:53:46.009Z,36.14
2023-05-01T11:54:45.970Z,38.75
2023-05-01T11:55:46.017Z,40.40
2023-05-01T11:56:45.997Z,33.50
2023-05-01T11:57:45.985Z,39.23
2023-05-01T11:58:45.997Z,39.39
2023-05-01T11:59:46.017Z,38.65
2023-05-01T12:00:46.025Z,35.88
2023-05-01T12:01:46.037Z,37.83
2023-05-01T12:02:46.068Z,38.04
2023-05-01T12:03:46.192Z,38.80
2023-05-01T12:04:46.073Z,36.62
2023-05-01T12:05:46.059Z,36.83
2023-05-01T12:06:46.209Z,37.18
2023-05-01T12:07:46.066Z,36.92
2023-05-01T12:08:46.067Z,39.13
2023-05-01T12:09:46.078Z,39.70
2023-05-01T12:10:46.075Z,38.36
2023-05-01T12:11:46.128Z,38.73
2023-05-01T12:12:46.089Z,39.67
2023-05-01T12:13:46.109Z,40.26
2023-05-01T12:14:46.129Z,37.23
2023-05-01T12:15:46.106Z,38.80
2023-05-01T12:16:46.164Z,39.38
2023-05-01T12:17:46.147Z,38.70
2023-05-01T12:18:46.135Z,38.61
2023-05-01T12:19:46.132Z,38.00
2023-05-01T12:20:46.166Z,38.89
2023-05-01T12:21:46.199Z,39.16
2023-05-01T12:22:46.162Z,39.46
2023-05-01T12:23:46.184Z,40.09
2023-05-01T12:24:46.214Z,40.23
2023-05-01T12:25:46.206Z,40.09
2023-05-01T12:26:46.245Z,39.33
2023-05-01T12:27:46.237Z,39.42
2023-05-01T12:28:46.194Z,41.67
2023-05-01T12:29:46.214Z,39.37
2023-05-01T12:30:46.245Z,39.33
2023-05-01T12:31:46.338Z,38.86
2023-05-01T12:32:46.303Z,39.85
2023-05-01T12:33:46.230Z,40.24
2023-05-01T12:34:46.250Z,41.01
2023-05-01T12:35:46.247Z,38.18
2023-05-01T12:36:46.282Z,40.05
2023-05-01T12:37:46.262Z,39.90
2023-05-01T12:38:46.288Z,40.82
2023-05-01T12:39:46.301Z,40.25
2023-05-01T12:40:46.278Z,38.95
2023-05-01T12:41:46.301Z,37.42
2023-05-01T12:42:46.288Z,36.05
2023-05-01T12:43:46.384Z,42.49
2023-05-01T12:44:46.314Z,38.26
2023-05-01T12:45:46.316Z,39.31
2023-05-01T12:46:46.409Z,38.21
2023-05-01T12:47:46.341Z,37.72
2023-05-01T12:48:46.382Z,40.01
2023-05-01T12:49:46.338Z,38.83
2023-05-01T12:50:48.135Z,39.29
2023-05-01T12:51:46.410Z,39.89
2023-05-01T12:52:46.420Z,38.61
2023-05-01T12:53:46.432Z,40.00